sensor_id;sensor_type;location;lat;lon;timestamp;pressure;altitude;pressure_sealevel;temperature;humidity
69751;BME280;57335;52.288;6.056;2022-12-18T00:01:04;102907.41;;;-4.80;100.00
69751;BME280;57335;52.288;6.056;2022-12-18T00:03:34;102914.13;;;-4.77;100.00
69751;BME280;57335;52.288;6.056;2022-12-18T00:06:01;102906.53;;;-4.79;100.00
69751;BME280;57335;52.288;6.056;2022-12-18T00:08:27;102902.44;;;-4.85;100.00
69751;BME280;57335;52.288;6.056;2022-12-18T00:10:54;102898.47;;;-4.93;100.00
69751;BME280;57335;52.288;6.056;2022-12-18T00:13:27;102898.78;;;-5.01;100.00
69751;BME280;57335;52.288;6.056;2022-12-18T00:15:53;102908.47;;;-5.11;100.00
69751;BME280;57335;52.288;6.056;2022-12-18T00:18:22;102900.25;;;-5.19;100.00
69751;BME280;57335;52.288;6.056;2022-12-18T00:20:48;102900.81;;;-5.11;100.00
69751;BME280;57335;52.288;6.056;2022-12-18T00:23:14;102882.91;;;-5.11;100.00
69751;BME280;57335;52.288;6.056;2022-12-18T00:25:41;102880.44;;;-5.14;100.00
69751;BME280;57335;52.288;6.056;2022-12-18T00:28:07;102873.56;;;-5.12;100.00
69751;BME280;57335;52.288;6.056;2022-12-18T00:30:33;102882.78;;;-5.08;100.00
69751;BME280;57335;52.288;6.056;2022-12-18T00:33:00;102883.69;;;-5.09;100.00
69751;BME280;57335;52.288;6.056;2022-12-18T00:35:26;102879.66;;;-5.16;100.00
69751;BME280;57335;52.288;6.056;2022-12-18T00:37:52;102892.22;;;-5.10;100.00
69751;BME280;57335;52.288;6.056;2022-12-18T00:40:19;102895.56;;;-5.08;100.00
69751;BME280;57335;52.288;6.056;2022-12-18T00:42:45;102902.59;;;-5.13;100.00
69751;BME280;57335;52.288;6.056;2022-12-18T00:45:12;102889.09;;;-5.18;100.00
69751;BME280;57335;52.288;6.056;2022-12-18T00:47:39;102883.25;;;-5.22;100.00
69751;BME280;57335;52.288;6.056;2022-12-18T00:50:06;102896.63;;;-5.13;100.00
69751;BME280;57335;52.288;6.056;2022-12-18T00:52:32;102884.69;;;-5.13;100.00
69751;BME280;57335;52.288;6.056;2022-12-18T00:54:59;102882.22;;;-5.16;100.00
69751;BME280;57335;52.288;6.056;2022-12-18T00:57:31;102886.59;;;-5.19;100.00
69751;BME280;57335;52.288;6.056;2022-12-18T00:59:57;102891.78;;;-5.21;100.00
69751;BME280;57335;52.288;6.056;2022-12-18T01:02:24;102881.03;;;-5.31;100.00
69751;BME280;57335;52.288;6.056;2022-12-18T01:04:50;102885.25;;;-5.30;100.00
69751;BME280;57335;52.288;6.056;2022-12-18T01:07:17;102894.69;;;-5.32;100.00
69751;BME280;57335;52.288;6.056;2022-12-18T01:09:44;102903.13;;;-5.30;100.00
69751;BME280;57335;52.288;6.056;2022-12-18T01:12:10;102891.69;;;-5.43;100.00
69751;BME280;57335;52.288;6.056;2022-12-18T01:14:37;102885.91;;;-5.50;100.00
69751;BME280;57335;52.288;6.056;2022-12-18T01:17:03;102877.84;;;-5.63;100.00
69751;BME280;57335;52.288;6.056;2022-12-18T01:19:30;102882.13;;;-5.63;100.00
69751;BME280;57335;52.288;6.056;2022-12-18T01:21:57;102891.53;;;-5.65;100.00
69751;BME280;57335;52.288;6.056;2022-12-18T01:24:23;102881.69;;;-5.77;100.00
69751;BME280;57335;52.288;6.056;2022-12-18T01:26:50;102877.50;;;-5.78;100.00
69751;BME280;57335;52.288;6.056;2022-12-18T01:29:16;102885.94;;;-5.76;100.00
69751;BME280;57335;52.288;6.056;2022-12-18T01:31:42;102879.25;;;-5.81;100.00
69751;BME280;57335;52.288;6.056;2022-12-18T01:34:09;102878.47;;;-5.83;100.00
69751;BME280;57335;52.288;6.056;2022-12-18T01:36:39;102887.19;;;-5.90;100.00
69751;BME280;57335;52.288;6.056;2022-12-18T01:39:10;102884.75;;;-5.93;100.00
69751;BME280;57335;52.288;6.056;2022-12-18T01:41:37;102884.88;;;-5.96;100.00
69751;BME280;57335;52.288;6.056;2022-12-18T01:47:14;102890.28;;;-6.05;100.00
69751;BME280;57335;52.288;6.056;2022-12-18T01:49:41;102876.78;;;-6.09;100.00
69751;BME280;57335;52.288;6.056;2022-12-18T01:52:08;102889.84;;;-6.19;100.00
69751;BME280;57335;52.288;6.056;2022-12-18T01:54:34;102901.81;;;-6.22;100.00
69751;BME280;57335;52.288;6.056;2022-12-18T01:57:01;102902.09;;;-6.31;100.00
69751;BME280;57335;52.288;6.056;2022-12-18T01:59:27;102893.06;;;-6.41;100.00
69751;BME280;57335;52.288;6.056;2022-12-18T02:01:55;102895.69;;;-6.44;100.00
69751;BME280;57335;52.288;6.056;2022-12-18T02:04:26;102909.97;;;-6.38;100.00
69751;BME280;57335;52.288;6.056;2022-12-18T02:07:07;102915.06;;;-6.38;100.00
69751;BME280;57335;52.288;6.056;2022-12-18T02:09:46;102899.13;;;-6.45;100.00
69751;BME280;57335;52.288;6.056;2022-12-18T02:12:23;102906.63;;;-6.40;100.00
69751;BME280;57335;52.288;6.056;2022-12-18T02:18:08;102893.25;;;-6.49;100.00
69751;BME280;57335;52.288;6.056;2022-12-18T02:23:59;102890.47;;;-6.69;100.00
69751;BME280;57335;52.288;6.056;2022-12-18T02:26:37;102896.47;;;-6.72;100.00
69751;BME280;57335;52.288;6.056;2022-12-18T02:29:09;102908.41;;;-6.74;100.00
69751;BME280;57335;52.288;6.056;2022-12-18T02:31:58;102912.72;;;-6.76;100.00
69751;BME280;57335;52.288;6.056;2022-12-18T02:34:28;102901.06;;;-6.85;100.00
69751;BME280;57335;52.288;6.056;2022-12-18T02:36:58;102915.44;;;-6.82;100.00
69751;BME280;57335;52.288;6.056;2022-12-18T02:39:26;102918.97;;;-6.88;100.00
69751;BME280;57335;52.288;6.056;2022-12-18T02:41:55;102914.69;;;-6.86;100.00
69751;BME280;57335;52.288;6.056;2022-12-18T02:44:22;102904.63;;;-6.90;100.00
69751;BME280;57335;52.288;6.056;2022-12-18T02:46:50;102904.66;;;-6.92;100.00
69751;BME280;57335;52.288;6.056;2022-12-18T02:49:53;102909.69;;;-6.89;100.00
69751;BME280;57335;52.288;6.056;2022-12-18T02:57:55;102891.31;;;-7.02;100.00
69751;BME280;57335;52.288;6.056;2022-12-18T03:00:28;102878.03;;;-7.13;100.00
69751;BME280;57335;52.288;6.056;2022-12-18T03:05:33;102885.06;;;-7.21;100.00
69751;BME280;57335;52.288;6.056;2022-12-18T03:08:08;102869.22;;;-7.34;100.00
69751;BME280;57335;52.288;6.056;2022-12-18T03:10:45;102877.72;;;-7.33;100.00
69751;BME280;57335;52.288;6.056;2022-12-18T03:13:27;102872.91;;;-7.46;100.00
69751;BME280;57335;52.288;6.056;2022-12-18T03:15:56;102879.69;;;-7.45;100.00
69751;BME280;57335;52.288;6.056;2022-12-18T03:18:27;102871.25;;;-7.47;100.00
69751;BME280;57335;52.288;6.056;2022-12-18T03:20:58;102872.91;;;-7.46;100.00
69751;BME280;57335;52.288;6.056;2022-12-18T03:23:29;102864.47;;;-7.48;100.00
69751;BME280;57335;52.288;6.056;2022-12-18T03:26:01;102856.84;;;-7.48;100.00
69751;BME280;57335;52.288;6.056;2022-12-18T03:28:37;102875.34;;;-7.39;100.00
69751;BME280;57335;52.288;6.056;2022-12-18T03:31:08;102864.28;;;-7.40;100.00
69751;BME280;57335;52.288;6.056;2022-12-18T03:33:52;102860.00;;;-7.38;100.00
69751;BME280;57335;52.288;6.056;2022-12-18T03:36:19;102855.94;;;-7.45;100.00
69751;BME280;57335;52.288;6.056;2022-12-18T03:38:45;102862.66;;;-7.43;100.00
69751;BME280;57335;52.288;6.056;2022-12-18T03:41:32;102847.56;;;-7.49;100.00
69751;BME280;57335;52.288;6.056;2022-12-18T03:52:06;102860.19;;;-7.46;100.00
69751;BME280;57335;52.288;6.056;2022-12-18T03:54:36;102853.44;;;-7.47;100.00
69751;BME280;57335;52.288;6.056;2022-12-18T03:57:21;102855.97;;;-7.47;100.00
69751;BME280;57335;52.288;6.056;2022-12-18T03:59:55;102850.88;;;-7.47;100.00
69751;BME280;57335;52.288;6.056;2022-12-18T04:02:23;102845.97;;;-7.53;100.00
69751;BME280;57335;52.288;6.056;2022-12-18T04:04:56;102848.38;;;-7.48;100.00
69751;BME280;57335;52.288;6.056;2022-12-18T04:07:23;102841.63;;;-7.49;100.00
69751;BME280;57335;52.288;6.056;2022-12-18T04:09:53;102824.75;;;-7.53;100.00
69751;BME280;57335;52.288;6.056;2022-12-18T04:12:24;102845.16;;;-7.55;100.00
69751;BME280;57335;52.288;6.056;2022-12-18T04:14:51;102846.91;;;-7.57;100.00
69751;BME280;57335;52.288;6.056;2022-12-18T04:17:18;102839.31;;;-7.58;100.00
69751;BME280;57335;52.288;6.056;2022-12-18T04:19:44;102840.78;;;-7.50;100.00
69751;BME280;57335;52.288;6.056;2022-12-18T04:22:11;102839.03;;;-7.48;100.00
69751;BME280;57335;52.288;6.056;2022-12-18T04:24:37;102840.69;;;-7.47;100.00
69751;BME280;57335;52.288;6.056;2022-12-18T04:27:04;102833.09;;;-7.48;100.00
69751;BME280;57335;52.288;6.056;2022-12-18T04:29:31;102829.88;;;-7.55;100.00
69751;BME280;57335;52.288;6.056;2022-12-18T04:31:57;102843.31;;;-7.50;100.00
69751;BME280;57335;52.288;6.056;2022-12-18T04:34:24;102839.19;;;-7.54;100.00
69751;BME280;57335;52.288;6.056;2022-12-18T04:36:50;102832.50;;;-7.58;100.00
69751;BME280;57335;52.288;6.056;2022-12-18T04:39:17;102841.78;;;-7.55;100.00
69751;BME280;57335;52.288;6.056;2022-12-18T04:41:43;102827.66;;;-7.67;100.00
69751;BME280;57335;52.288;6.056;2022-12-18T04:44:09;102835.28;;;-7.67;100.00
69751;BME280;57335;52.288;6.056;2022-12-18T04:46:36;102826.94;;;-7.74;100.00
69751;BME280;57335;52.288;6.056;2022-12-18T04:49:02;102828.59;;;-7.71;100.00
69751;BME280;57335;52.288;6.056;2022-12-18T04:51:29;102829.41;;;-7.69;100.00
69751;BME280;57335;52.288;6.056;2022-12-18T04:53:55;102824.34;;;-7.71;100.00
69751;BME280;57335;52.288;6.056;2022-12-18T04:56:21;102824.38;;;-7.72;100.00
69751;BME280;57335;52.288;6.056;2022-12-18T04:58:48;102842.94;;;-7.67;100.00
69751;BME280;57335;52.288;6.056;2022-12-18T05:01:16;102835.38;;;-7.72;100.00
69751;BME280;57335;52.288;6.056;2022-12-18T05:03:43;102844.53;;;-7.63;100.00
69751;BME280;57335;52.288;6.056;2022-12-18T05:06:10;102844.50;;;-7.62;100.00
69751;BME280;57335;52.288;6.056;2022-12-18T05:08:37;102838.66;;;-7.67;100.00
69751;BME280;57335;52.288;6.056;2022-12-18T05:11:09;102847.94;;;-7.64;100.00
69751;BME280;57335;52.288;6.056;2022-12-18T05:13:36;102853.88;;;-7.64;100.00
69751;BME280;57335;52.288;6.056;2022-12-18T05:16:04;102853.00;;;-7.63;100.00
69751;BME280;57335;52.288;6.056;2022-12-18T05:18:32;102853.78;;;-7.60;100.00
69751;BME280;57335;52.288;6.056;2022-12-18T05:20:58;102841.19;;;-7.65;100.00
69751;BME280;57335;52.288;6.056;2022-12-18T05:23:25;102847.16;;;-7.68;100.00
69751;BME280;57335;52.288;6.056;2022-12-18T05:25:56;102853.88;;;-7.64;100.00
69751;BME280;57335;52.288;6.056;2022-12-18T05:28:25;102867.34;;;-7.60;100.00
69751;BME280;57335;52.288;6.056;2022-12-18T05:30:56;102876.66;;;-7.59;100.00
69751;BME280;57335;52.288;6.056;2022-12-18T05:33:25;102875.06;;;-7.63;100.00
69751;BME280;57335;52.288;6.056;2022-12-18T05:35:56;102877.53;;;-7.60;100.00
69751;BME280;57335;52.288;6.056;2022-12-18T05:38:24;102868.38;;;-7.67;100.00
69751;BME280;57335;52.288;6.056;2022-12-18T05:40:51;102886.06;;;-7.61;100.00
69751;BME280;57335;52.288;6.056;2022-12-18T05:43:19;102879.44;;;-7.70;100.00
69751;BME280;57335;52.288;6.056;2022-12-18T05:45:47;102887.94;;;-7.69;100.00
69751;BME280;57335;52.288;6.056;2022-12-18T05:48:14;102895.47;;;-7.65;100.00
69751;BME280;57335;52.288;6.056;2022-12-18T05:50:43;102882.91;;;-7.72;100.00
69751;BME280;57335;52.288;6.056;2022-12-18T05:53:09;102882.00;;;-7.70;100.00
69751;BME280;57335;52.288;6.056;2022-12-18T05:55:38;102887.84;;;-7.66;100.00
69751;BME280;57335;52.288;6.056;2022-12-18T05:58:07;102888.66;;;-7.64;100.00
69751;BME280;57335;52.288;6.056;2022-12-18T06:00:36;102881.16;;;-7.70;100.00
69751;BME280;57335;52.288;6.056;2022-12-18T06:03:02;102882.78;;;-7.66;100.00
69751;BME280;57335;52.288;6.056;2022-12-18T06:05:29;102877.91;;;-7.75;100.00
69751;BME280;57335;52.288;6.056;2022-12-18T06:07:55;102877.94;;;-7.77;100.00
69751;BME280;57335;52.288;6.056;2022-12-18T06:10:21;102857.84;;;-7.88;100.00
69751;BME280;57335;52.288;6.056;2022-12-18T06:12:48;102859.56;;;-7.90;100.00
69751;BME280;57335;52.288;6.056;2022-12-18T06:15:14;102856.22;;;-7.92;100.00
69751;BME280;57335;52.288;6.056;2022-12-18T06:17:42;102857.78;;;-7.86;100.00
69751;BME280;57335;52.288;6.056;2022-12-18T06:20:08;102861.19;;;-7.86;100.00
69751;BME280;57335;52.288;6.056;2022-12-18T06:22:35;102862.03;;;-7.85;100.00
69751;BME280;57335;52.288;6.056;2022-12-18T06:25:02;102856.97;;;-7.87;100.00
69751;BME280;57335;52.288;6.056;2022-12-18T06:27:28;102858.66;;;-7.86;100.00
69751;BME280;57335;52.288;6.056;2022-12-18T06:29:54;102861.19;;;-7.86;100.00
69751;BME280;57335;52.288;6.056;2022-12-18T06:32:21;102835.06;;;-7.94;100.00
69751;BME280;57335;52.288;6.056;2022-12-18T06:34:47;102841.63;;;-7.84;100.00
69751;BME280;57335;52.288;6.056;2022-12-18T06:37:14;102850.72;;;-7.73;100.00
69751;BME280;57335;52.288;6.056;2022-12-18T06:39:40;102850.63;;;-7.70;100.00
69751;BME280;57335;52.288;6.056;2022-12-18T06:42:06;102845.50;;;-7.69;100.00
69751;BME280;57335;52.288;6.056;2022-12-18T06:44:33;102845.44;;;-7.66;100.00
69751;BME280;57335;52.288;6.056;2022-12-18T06:47:00;102837.75;;;-7.64;100.00
69751;BME280;57335;52.288;6.056;2022-12-18T06:49:26;102819.38;;;-7.75;100.00
69751;BME280;57335;52.288;6.056;2022-12-18T06:51:56;102823.44;;;-7.70;100.00
69751;BME280;57335;52.288;6.056;2022-12-18T06:54:22;102822.56;;;-7.67;100.00
69751;BME280;57335;52.288;6.056;2022-12-18T06:56:49;102822.47;;;-7.64;100.00
69751;BME280;57335;52.288;6.056;2022-12-18T06:59:16;102826.56;;;-7.58;100.00
69751;BME280;57335;52.288;6.056;2022-12-18T07:01:42;102808.69;;;-7.55;100.00
69751;BME280;57335;52.288;6.056;2022-12-18T07:04:09;102817.81;;;-7.48;100.00
69751;BME280;57335;52.288;6.056;2022-12-18T07:06:35;102816.91;;;-7.46;100.00
69751;BME280;57335;52.288;6.056;2022-12-18T07:09:02;102813.34;;;-7.40;100.00
69751;BME280;57335;52.288;6.056;2022-12-18T07:11:28;102814.09;;;-7.35;100.00
69751;BME280;57335;52.288;6.056;2022-12-18T07:13:55;102803.97;;;-7.38;100.00
69751;BME280;57335;52.288;6.056;2022-12-18T07:16:21;102808.88;;;-7.32;100.00
69751;BME280;57335;52.288;6.056;2022-12-18T07:18:52;102800.25;;;-7.26;100.00
69751;BME280;57335;52.288;6.056;2022-12-18T07:21:19;102815.28;;;-7.15;100.00
69751;BME280;57335;52.288;6.056;2022-12-18T07:23:46;102808.53;;;-7.18;100.00
69751;BME280;57335;52.288;6.056;2022-12-18T07:26:13;102806.84;;;-7.17;100.00
69751;BME280;57335;52.288;6.056;2022-12-18T07:28:41;102789.19;;;-7.25;100.00
69751;BME280;57335;52.288;6.056;2022-12-18T07:31:10;102790.06;;;-7.26;100.00
69751;BME280;57335;52.288;6.056;2022-12-18T07:33:37;102805.16;;;-7.18;100.00
69751;BME280;57335;52.288;6.056;2022-12-18T07:36:06;102805.81;;;-7.12;100.00
69751;BME280;57335;52.288;6.056;2022-12-18T07:38:34;102817.69;;;-7.11;100.00
69751;BME280;57335;52.288;6.056;2022-12-18T07:41:02;102831.25;;;-7.10;100.00
69751;BME280;57335;52.288;6.056;2022-12-18T07:43:32;102830.25;;;-7.05;100.00
69751;BME280;57335;52.288;6.056;2022-12-18T07:45:59;102827.69;;;-7.05;100.00
69751;BME280;57335;52.288;6.056;2022-12-18T07:48:25;102825.13;;;-7.03;100.00
69751;BME280;57335;52.288;6.056;2022-12-18T07:50:52;102810.81;;;-7.09;100.00
69751;BME280;57335;52.288;6.056;2022-12-18T07:53:18;102806.38;;;-7.02;100.00
69751;BME280;57335;52.288;6.056;2022-12-18T07:55:45;102805.41;;;-6.98;100.00
69751;BME280;57335;52.288;6.056;2022-12-18T07:58:32;102796.09;;;-6.97;100.00
69751;BME280;57335;52.288;6.056;2022-12-18T08:01:06;102789.94;;;-6.92;100.00
69751;BME280;57335;52.288;6.056;2022-12-18T08:03:33;102787.19;;;-6.84;100.00
69751;BME280;57335;52.288;6.056;2022-12-18T08:06:04;102776.13;;;-6.83;100.00
69751;BME280;57335;52.288;6.056;2022-12-18T08:08:31;102768.25;;;-6.75;100.00
69751;BME280;57335;52.288;6.056;2022-12-18T08:10:57;102766.19;;;-6.64;100.00
69751;BME280;57335;52.288;6.056;2022-12-18T08:13:25;102766.00;;;-6.58;100.00
69751;BME280;57335;52.288;6.056;2022-12-18T08:16:02;102764.91;;;-6.49;100.00
69751;BME280;57335;52.288;6.056;2022-12-18T08:18:29;102758.13;;;-6.50;100.00
69751;BME280;57335;52.288;6.056;2022-12-18T08:20:55;102757.06;;;-6.43;100.00
69751;BME280;57335;52.288;6.056;2022-12-18T08:23:22;102752.63;;;-6.38;100.00
69751;BME280;57335;52.288;6.056;2022-12-18T08:25:52;102767.56;;;-6.26;100.00
69751;BME280;57335;52.288;6.056;2022-12-18T08:28:19;102763.94;;;-6.18;100.00
69751;BME280;57335;52.288;6.056;2022-12-18T08:30:45;102763.72;;;-6.12;100.00
69751;BME280;57335;52.288;6.056;2022-12-18T08:33:11;102763.47;;;-6.05;100.00
69751;BME280;57335;52.288;6.056;2022-12-18T08:35:38;102766.56;;;-5.95;100.00
69751;BME280;57335;52.288;6.056;2022-12-18T08:38:11;102754.47;;;-5.91;100.00
69751;BME280;57335;52.288;6.056;2022-12-18T08:40:37;102752.59;;;-5.85;100.00
69751;BME280;57335;52.288;6.056;2022-12-18T08:43:03;102748.13;;;-5.79;100.00
69751;BME280;57335;52.288;6.056;2022-12-18T08:45:30;102742.97;;;-5.78;100.00
69751;BME280;57335;52.288;6.056;2022-12-18T08:47:56;102741.13;;;-5.73;100.00
69751;BME280;57335;52.288;6.056;2022-12-18T08:50:22;102754.31;;;-5.62;100.00
69751;BME280;57335;52.288;6.056;2022-12-18T08:52:49;102761.16;;;-5.62;100.00
69751;BME280;57335;52.288;6.056;2022-12-18T08:55:15;102754.06;;;-5.54;100.00
69751;BME280;57335;52.288;6.056;2022-12-18T08:57:42;102761.50;;;-5.48;100.00
69751;BME280;57335;52.288;6.056;2022-12-18T09:00:09;102766.34;;;-5.40;100.00
69751;BME280;57335;52.288;6.056;2022-12-18T09:02:36;102761.97;;;-5.36;100.00
69751;BME280;57335;52.288;6.056;2022-12-18T09:05:03;102764.53;;;-5.36;100.00
69751;BME280;57335;52.288;6.056;2022-12-18T09:07:29;102767.56;;;-5.25;100.00
69751;BME280;57335;52.288;6.056;2022-12-18T09:09:55;102762.47;;;-5.27;100.00
69751;BME280;57335;52.288;6.056;2022-12-18T09:12:22;102766.59;;;-5.23;100.00
69751;BME280;57335;52.288;6.056;2022-12-18T09:14:48;102757.25;;;-5.24;100.00
69751;BME280;57335;52.288;6.056;2022-12-18T09:17:14;102770.34;;;-5.09;100.00
69751;BME280;57335;52.288;6.056;2022-12-18T09:19:41;102769.31;;;-5.04;100.00
69751;BME280;57335;52.288;6.056;2022-12-18T09:22:07;102762.31;;;-4.98;100.00
69751;BME280;57335;52.288;6.056;2022-12-18T09:24:33;102753.41;;;-4.88;100.00
69751;BME280;57335;52.288;6.056;2022-12-18T09:27:00;102748.81;;;-4.80;100.00
69751;BME280;57335;52.288;6.056;2022-12-18T09:29:26;102749.16;;;-4.67;100.00
69751;BME280;57335;52.288;6.056;2022-12-18T09:31:53;102751.19;;;-4.53;100.00
69751;BME280;57335;52.288;6.056;2022-12-18T09:34:19;102757.81;;;-4.48;100.00
69751;BME280;57335;52.288;6.056;2022-12-18T09:36:47;102775.06;;;-4.31;100.00
69751;BME280;57335;52.288;6.056;2022-12-18T09:39:15;102775.69;;;-4.26;99.11
69751;BME280;57335;52.288;6.056;2022-12-18T09:41:51;102762.69;;;-4.21;98.99
69751;BME280;57335;52.288;6.056;2022-12-18T09:44:23;102756.50;;;-4.15;99.56
69751;BME280;57335;52.288;6.056;2022-12-18T09:47:03;102772.34;;;-4.06;98.77
69751;BME280;57335;52.288;6.056;2022-12-18T09:49:33;102759.47;;;-4.04;97.54
69751;BME280;57335;52.288;6.056;2022-12-18T09:52:37;102750.81;;;-4.02;97.44
69751;BME280;57335;52.288;6.056;2022-12-18T09:55:18;102736.88;;;-3.94;98.36
69751;BME280;57335;52.288;6.056;2022-12-18T09:57:52;102736.81;;;-3.93;97.00
69751;BME280;57335;52.288;6.056;2022-12-18T10:00:21;102731.44;;;-3.87;97.81
69751;BME280;57335;52.288;6.056;2022-12-18T10:02:50;102731.34;;;-3.85;96.69
69751;BME280;57335;52.288;6.056;2022-12-18T10:05:33;102737.56;;;-3.70;97.56
69751;BME280;57335;52.288;6.056;2022-12-18T10:08:11;102726.34;;;-3.68;96.44
69751;BME280;57335;52.288;6.056;2022-12-18T10:13:55;102711.19;;;-3.53;96.88
69751;BME280;57335;52.288;6.056;2022-12-18T10:16:16;102707.41;;;-3.45;97.00
69751;BME280;57335;52.288;6.056;2022-12-18T10:19:11;102692.59;;;-3.38;96.41
69751;BME280;57335;52.288;6.056;2022-12-18T10:24:38;102682.88;;;-3.31;96.80
69751;BME280;57335;52.288;6.056;2022-12-18T10:27:18;102672.56;;;-3.30;96.00
69751;BME280;57335;52.288;6.056;2022-12-18T10:29:47;102663.00;;;-3.26;96.29
69751;BME280;57335;52.288;6.056;2022-12-18T10:32:17;102670.81;;;-3.10;97.67
69751;BME280;57335;52.288;6.056;2022-12-18T10:34:48;102670.47;;;-3.03;96.96
69751;BME280;57335;52.288;6.056;2022-12-18T10:37:21;102678.63;;;-2.94;96.99
69751;BME280;57335;52.288;6.056;2022-12-18T10:40:04;102676.53;;;-2.86;96.62
69751;BME280;57335;52.288;6.056;2022-12-18T10:42:32;102672.34;;;-2.89;95.15
69751;BME280;57335;52.288;6.056;2022-12-18T10:45:14;102663.00;;;-2.90;94.98
69751;BME280;57335;52.288;6.056;2022-12-18T10:47:44;102652.97;;;-2.77;95.86
69751;BME280;57335;52.288;6.056;2022-12-18T10:50:26;102644.50;;;-2.79;94.74
69751;BME280;57335;52.288;6.056;2022-12-18T10:53:19;102640.75;;;-2.72;95.03
69751;BME280;57335;52.288;6.056;2022-12-18T10:55:47;102633.44;;;-2.79;94.37
69751;BME280;57335;52.288;6.056;2022-12-18T10:58:31;102620.00;;;-2.67;94.77
69751;BME280;57335;52.288;6.056;2022-12-18T11:03:42;102629.22;;;-2.63;93.78
69751;BME280;57335;52.288;6.056;2022-12-18T11:06:21;102625.50;;;-2.57;94.07
69751;BME280;57335;52.288;6.056;2022-12-18T11:08:59;102641.22;;;-2.46;93.54
69751;BME280;57335;52.288;6.056;2022-12-18T11:11:26;102635.09;;;-2.44;92.96
69751;BME280;57335;52.288;6.056;2022-12-18T11:13:58;102645.00;;;-2.36;92.32
69751;BME280;57335;52.288;6.056;2022-12-18T11:16:25;102650.56;;;-2.28;93.33
69751;BME280;57335;52.288;6.056;2022-12-18T11:18:52;102651.91;;;-2.21;93.35
69751;BME280;57335;52.288;6.056;2022-12-18T11:21:18;102637.56;;;-2.25;92.31
69751;BME280;57335;52.288;6.056;2022-12-18T11:23:52;102650.25;;;-2.22;91.23
69751;BME280;57335;52.288;6.056;2022-12-18T11:26:20;102634.69;;;-2.18;91.74
69751;BME280;57335;52.288;6.056;2022-12-18T11:29:07;102630.38;;;-2.18;91.54
69751;BME280;57335;52.288;6.056;2022-12-18T11:31:34;102619.56;;;-2.25;90.71
69751;BME280;57335;52.288;6.056;2022-12-18T11:34:26;102603.22;;;-2.22;90.06
69751;BME280;57335;52.288;6.056;2022-12-18T11:36:57;102597.00;;;-2.18;91.96
69751;BME280;57335;52.288;6.056;2022-12-18T11:39:34;102595.75;;;-2.11;90.48
69751;BME280;57335;52.288;6.056;2022-12-18T11:42:09;102595.00;;;-2.13;90.02
69751;BME280;57335;52.288;6.056;2022-12-18T11:49:50;102581.03;;;-2.07;90.69
69751;BME280;57335;52.288;6.056;2022-12-18T11:52:24;102585.63;;;-1.96;90.42
69751;BME280;57335;52.288;6.056;2022-12-18T11:54:55;102583.13;;;-1.98;89.82
69751;BME280;57335;52.288;6.056;2022-12-18T11:57:48;102578.41;;;-1.90;89.82
69751;BME280;57335;52.288;6.056;2022-12-18T12:00:19;102579.06;;;-1.86;88.73
69751;BME280;57335;52.288;6.056;2022-12-18T12:03:27;102576.31;;;-1.83;88.20
69751;BME280;57335;52.288;6.056;2022-12-18T12:11:38;102545.91;;;-1.75;88.53
69751;BME280;57335;52.288;6.056;2022-12-18T12:14:42;102532.81;;;-1.70;88.31
69751;BME280;57335;52.288;6.056;2022-12-18T12:17:25;102527.50;;;-1.67;88.70
69751;BME280;57335;52.288;6.056;2022-12-18T12:20:08;102502.72;;;-1.84;86.18
69751;BME280;57335;52.288;6.056;2022-12-18T12:25:41;102519.97;;;-1.70;87.94
69751;BME280;57335;52.288;6.056;2022-12-18T12:28:34;102519.84;;;-1.69;86.83
69751;BME280;57335;52.288;6.056;2022-12-18T12:31:18;102525.84;;;-1.68;86.86
69751;BME280;57335;52.288;6.056;2022-12-18T12:39:06;102517.88;;;-1.64;87.13
69751;BME280;57335;52.288;6.056;2022-12-18T12:41:35;102527.16;;;-1.61;87.35
69751;BME280;57335;52.288;6.056;2022-12-18T12:44:07;102507.75;;;-1.67;86.68
69751;BME280;57335;52.288;6.056;2022-12-18T12:46:39;102521.84;;;-1.58;87.19
69751;BME280;57335;52.288;6.056;2022-12-18T12:49:14;102515.78;;;-1.57;87.88
69751;BME280;57335;52.288;6.056;2022-12-18T12:51:45;102500.78;;;-1.65;86.53
69751;BME280;57335;52.288;6.056;2022-12-18T12:54:18;102503.94;;;-1.59;86.91
69751;BME280;57335;52.288;6.056;2022-12-18T12:56:51;102494.75;;;-1.64;86.93
69751;BME280;57335;52.288;6.056;2022-12-18T12:59:47;102489.69;;;-1.65;86.81
69751;BME280;57335;52.288;6.056;2022-12-18T13:02:24;102488.59;;;-1.61;87.15
69751;BME280;57335;52.288;6.056;2022-12-18T13:05:09;102489.53;;;-1.62;87.25
69751;BME280;57335;52.288;6.056;2022-12-18T13:08:06;102480.81;;;-1.59;87.45
69751;BME280;57335;52.288;6.056;2022-12-18T13:10:41;102475.59;;;-1.58;85.44
69751;BME280;57335;52.288;6.056;2022-12-18T13:13:15;102472.09;;;-1.57;86.86
69751;BME280;57335;52.288;6.056;2022-12-18T13:16:18;102471.94;;;-1.54;86.55
69751;BME280;57335;52.288;6.056;2022-12-18T13:18:52;102474.84;;;-1.60;85.94
69751;BME280;57335;52.288;6.056;2022-12-18T13:21:24;102463.72;;;-1.61;86.98
69751;BME280;57335;52.288;6.056;2022-12-18T13:23:54;102466.03;;;-1.56;86.91
69751;BME280;57335;52.288;6.056;2022-12-18T13:28:56;102453.53;;;-1.62;86.16
69751;BME280;57335;52.288;6.056;2022-12-18T13:34:22;102469.09;;;-1.49;86.90
69751;BME280;57335;52.288;6.056;2022-12-18T13:36:54;102462.31;;;-1.50;86.50
69751;BME280;57335;52.288;6.056;2022-12-18T13:39:24;102452.69;;;-1.63;85.79
69751;BME280;57335;52.288;6.056;2022-12-18T13:44:32;102454.31;;;-1.46;87.77
69751;BME280;57335;52.288;6.056;2022-12-18T13:47:31;102445.47;;;-1.56;87.50
69751;BME280;57335;52.288;6.056;2022-12-18T13:50:00;102456.16;;;-1.48;87.20
69751;BME280;57335;52.288;6.056;2022-12-18T13:52:33;102452.09;;;-1.52;86.99
69751;BME280;57335;52.288;6.056;2022-12-18T13:55:11;102451.34;;;-1.54;86.97
69751;BME280;57335;52.288;6.056;2022-12-18T13:57:41;102449.44;;;-1.50;87.68
69751;BME280;57335;52.288;6.056;2022-12-18T14:00:23;102451.91;;;-1.49;87.02
69751;BME280;57335;52.288;6.056;2022-12-18T14:02:51;102444.03;;;-1.46;87.16